LIEE/CAG METAR and TAF weather

Enter ICAO airport designator
Station Type Date Time Source
LIEE METAR 2021/05/14 23:20 UTC NOAA

LIEE 142320Z 01004KT 320V040 CAVOK 13/09 Q1016


Station Type Date Time Source
LIEE Decoded METAR 2021/05/14 23:20 UTC NOAA

Cagliari / Elmas, Italy (LIEE) 39-15N 009-04E 5M
May 14, 2021 - 07:20 PM EDT / 2021.05.14 2320 UTC
Wind: from the N (010 degrees) at 5 MPH (4 KT) (direction variable):0
Visibility: greater than 7 mile(s):0
Temperature: 55 F (13 C)
Dew Point: 48 F (9 C)
Relative Humidity: 76%
Pressure (altimeter): 30.00 in. Hg (1016 hPa)
ob: LIEE 142320Z 01004KT 320V040 CAVOK 13/09 Q1016
cycle: 23

Station Type Date Time Source
LIEE TAF 2021/05/14 18:21 UTC NOAA

TAF LIEE 141700Z 1418/1518 33014KT 9999 SCT020 SCT040
TEMPO 1418/1422 RA

Example: see airport list